| time (UTC) | temp C | wind direction | speed KPH | gust KPH | rain 1hr cm | rain 24hr cm | rain mn cm | humidity % | barometer mb |
| 20260510164546 | 15 | 299 | 6.4 | 17.7 | 0.00 | 0.00 | 0.00 | 51 | 1019.4 |
| 20260510164027 | 15 | 302 | 4.8 | 17.7 | 0.00 | 0.00 | 0.00 | 54 | 1019.3 |
| 20260510163531 | 15 | 308 | 9.7 | 22.5 | 0.00 | 0.00 | 0.00 | 50 | 1019.3 |
| 20260510163041 | 15 | 9 | 4.8 | 22.5 | 0.00 | 0.00 | 0.00 | 50 | 1019.2 |
| 20260510162526 | 14 | 329 | 6.4 | 24.1 | 0.00 | 0.00 | 0.00 | 57 | 1019.2 |
| 20260510162026 | 14 | 5 | 8.0 | 24.1 | 0.00 | 0.00 | 0.00 | 52 | 1019.1 |
| 20260510161542 | 14 | 331 | 9.7 | 20.9 | 0.00 | 0.00 | 0.00 | 53 | 1019.2 |
| 20260510161026 | 14 | 9 | 9.7 | 17.7 | 0.00 | 0.00 | 0.00 | 53 | 1019.1 |
| 20260510160528 | 14 | 46 | 9.7 | 20.9 | 0.00 | 0.00 | 0.00 | 50 | 1019.1 |
| 20260510160042 | 14 | 355 | 1.6 | 20.9 | 0.00 | 0.00 | 0.00 | 54 | 1019.1 |
| 20260510155531 | 14 | 15 | 9.7 | 19.3 | 0.00 | 0.00 | 0.00 | 54 | 1019.1 |
| 20260510155026 | 13 | 16 | 11.3 | 24.1 | 0.00 | 0.00 | 0.00 | 56 | 1019.0 |
| 20260510154545 | 13 | 307 | 8.0 | 24.1 | 0.00 | 0.00 | 0.00 | 57 | 1018.9 |
| 20260510154028 | 13 | 277 | 8.0 | 17.7 | 0.00 | 0.00 | 0.00 | 62 | 1018.9 |
| 20260510153528 | 13 | 348 | 11.3 | 17.7 | 0.00 | 0.00 | 0.00 | 58 | 1018.7 |
| 20260510153043 | 13 | 355 | 4.8 | 19.3 | 0.00 | 0.00 | 0.00 | 58 | 1018.7 |
| 20260510152527 | 13 | 11 | 11.3 | 19.3 | 0.00 | 0.00 | 0.00 | 56 | 1018.6 |
| 20260510152027 | 13 | 355 | 4.8 | 19.3 | 0.00 | 0.00 | 0.00 | 62 | 1018.8 |
| 20260510151545 | 13 | 352 | 9.7 | 17.7 | 0.00 | 0.00 | 0.00 | 57 | 1018.6 |
| 20260510151027 | 13 | 321 | 8.0 | 14.5 | 0.00 | 0.00 | 0.00 | 59 | 1018.6 |
| 20260510150528 | 13 | 331 | 6.4 | 16.1 | 0.00 | 0.00 | 0.00 | 59 | 1018.5 |
| 20260510150049 | 13 | 10 | 11.3 | 16.1 | 0.00 | 0.00 | 0.00 | 58 | 1018.4 |
| 20260510145527 | 12 | 28 | 6.4 | 17.7 | 0.00 | 0.00 | 0.00 | 58 | 1018.4 |
| 20260510145029 | 12 | 28 | 8.0 | 20.9 | 0.00 | 0.00 | 0.00 | 60 | 1018.4 |
| 20260510144557 | 12 | 22 | 8.0 | 20.9 | 0.00 | 0.00 | 0.00 | 61 | 1018.5 |
| 20260510144029 | 12 | 341 | 12.9 | 20.9 | 0.00 | 0.00 | 0.00 | 56 | 1018.4 |
| 20260510143528 | 12 | 40 | 14.5 | 22.5 | 0.00 | 0.00 | 0.00 | 58 | 1018.4 |
| 20260510143047 | 12 | 22 | 14.5 | 22.5 | 0.00 | 0.00 | 0.00 | 57 | 1018.3 |
| 20260510142527 | 12 | 39 | 11.3 | 22.5 | 0.00 | 0.00 | 0.00 | 60 | 1018.3 |
| 20260510142028 | 12 | 37 | 12.9 | 22.5 | 0.00 | 0.00 | 0.00 | 59 | 1018.2 |
| 20260510141547 | 12 | 18 | 11.3 | 22.5 | 0.00 | 0.00 | 0.00 | 61 | 1018.3 |
| 20260510141030 | 11 | 360 | 11.3 | 22.5 | 0.00 | 0.00 | 0.00 | 62 | 1018.4 |
| 20260510140529 | 11 | 35 | 14.5 | 22.5 | 0.00 | 0.00 | 0.00 | 61 | 1018.2 |
| 20260510140046 | 11 | 5 | 14.5 | 25.7 | 0.00 | 0.00 | 0.00 | 62 | 1018.2 |
| 20260510135530 | 11 | 338 | 16.1 | 25.7 | 0.00 | 0.00 | 0.00 | 60 | 1018.2 |
| 20260510135028 | 11 | 347 | 12.9 | 25.7 | 0.00 | 0.00 | 0.00 | 63 | 1018.3 |
| 20260510134601 | 11 | 22 | 11.3 | 19.3 | 0.00 | 0.00 | 0.00 | 68 | 1018.2 |
| 20260510134029 | 11 | 10 | 9.7 | 20.9 | 0.00 | 0.00 | 0.00 | 67 | 1018.2 |
| 20260510133527 | 11 | 44 | 11.3 | 20.9 | 0.00 | 0.00 | 0.00 | 65 | 1018.2 |
| 20260510133042 | 11 | 17 | 14.5 | 20.9 | 0.00 | 0.00 | 0.00 | 64 | 1018.1 |
| 20260510132527 | 11 | 360 | 11.3 | 20.9 | 0.00 | 0.00 | 0.00 | 68 | 1018.1 |
| 20260510132028 | 11 | 14 | 11.3 | 20.9 | 0.00 | 0.00 | 0.00 | 69 | 1018.1 |
| 20260510131540 | 10 | 19 | 11.3 | 20.9 | 0.00 | 0.00 | 0.00 | 68 | 1017.9 |
| 20260510131027 | 10 | 15 | 11.3 | 20.9 | 0.00 | 0.00 | 0.00 | 71 | 1017.8 |
| 20260510130528 | 10 | 9 | 9.7 | 20.9 | 0.00 | 0.00 | 0.00 | 72 | 1017.9 |
| 20260510130040 | 10 | 26 | 9.7 | 17.7 | 0.00 | 0.00 | 0.00 | 73 | 1017.7 |
| 20260510125527 | 10 | 23 | 6.4 | 16.1 | 0.00 | 0.00 | 0.00 | 75 | 1017.7 |
| 20260510125031 | 10 | 39 | 9.7 | 17.7 | 0.00 | 0.00 | 0.00 | 76 | 1017.5 |
| 20260510124552 | 10 | 9 | 11.3 | 17.7 | 0.00 | 0.00 | 0.00 | 75 | 1017.4 |
| 20260510124028 | 9 | 15 | 9.7 | 17.7 | 0.00 | 0.00 | 0.00 | 76 | 1017.3 |
| 20260510123530 | 9 | 5 | 11.3 | 17.7 | 0.00 | 0.00 | 0.00 | 75 | 1017.3 |
| 20260510123042 | 9 | 17 | 11.3 | 17.7 | 0.00 | 0.00 | 0.00 | 77 | 1017.3 |
| 20260510122527 | 9 | 360 | 11.3 | 19.3 | 0.00 | 0.00 | 0.00 | 78 | 1017.1 |
| 20260510122028 | 8 | 355 | 12.9 | 19.3 | 0.00 | 0.00 | 0.00 | 79 | 1017.0 |
| 20260510121541 | 8 | 19 | 8.0 | 17.7 | 0.00 | 0.00 | 0.00 | 81 | 1016.8 |
| 20260510121028 | 8 | 351 | 9.7 | 19.3 | 0.00 | 0.00 | 0.00 | 81 | 1016.8 |
| 20260510120531 | 8 | 5 | 6.4 | 19.3 | 0.00 | 0.00 | 0.00 | 81 | 1016.8 |
| 20260510120042 | 8 | 5 | 11.3 | 19.3 | 0.00 | 0.00 | 0.00 | 81 | 1016.8 |
| 20260510115527 | 8 | 348 | 9.7 | 17.7 | 0.00 | 0.00 | 0.00 | 81 | 1016.6 |
| 20260510115029 | 8 | 345 | 8.0 | 17.7 | 0.00 | 0.00 | 0.00 | 82 | 1016.6 |
| 20260510114541 | 8 | 324 | 9.7 | 16.1 | 0.00 | 0.00 | 0.00 | 83 | 1016.5 |
| 20260510114027 | 8 | 355 | 6.4 | 17.7 | 0.00 | 0.00 | 0.00 | 83 | 1016.4 |
| 20260510113529 | 8 | 355 | 9.7 | 17.7 | 0.00 | 0.00 | 0.00 | 83 | 1016.2 |
| 20260510113045 | 8 | 336 | 9.7 | 16.1 | 0.00 | 0.00 | 0.00 | 83 | 1016.0 |
| 20260510112528 | 8 | 337 | 8.0 | 16.1 | 0.00 | 0.00 | 0.00 | 84 | 1016.0 |
| 20260510112028 | 8 | 355 | 8.0 | 14.5 | 0.00 | 0.00 | 0.00 | 85 | 1015.8 |
| 20260510111553 | 8 | 13 | 8.0 | 14.5 | 0.00 | 0.00 | 0.00 | 85 | 1015.8 |
| 20260510111027 | 8 | 352 | 6.4 | 14.5 | 0.00 | 0.00 | 0.00 | 85 | 1015.8 |
| 20260510110526 | 8 | 346 | 8.0 | 14.5 | 0.00 | 0.00 | 0.00 | 85 | 1015.6 |
| 20260510110041 | 8 | 5 | 8.0 | 16.1 | 0.00 | 0.00 | 0.00 | 85 | 1015.4 |
| 20260510105528 | 8 | 360 | 8.0 | 17.7 | 0.00 | 0.00 | 0.00 | 85 | 1015.4 |
| 20260510105027 | 8 | 352 | 9.7 | 17.7 | 0.00 | 0.00 | 0.00 | 85 | 1015.2 |
| 20260510104554 | 8 | 343 | 8.0 | 16.1 | 0.00 | 0.00 | 0.00 | 86 | 1015.2 |
| 20260510104026 | 8 | 350 | 8.0 | 16.1 | 0.00 | 0.00 | 0.00 | 86 | 1015.0 |
| 20260510103527 | 8 | 347 | 6.4 | 16.1 | 0.00 | 0.00 | 0.00 | 86 | 1014.8 |
| 20260510103038 | 8 | 5 | 6.4 | 16.1 | 0.00 | 0.00 | 0.00 | 86 | 1014.8 |
| 20260510102527 | 8 | 355 | 8.0 | 16.1 | 0.00 | 0.00 | 0.00 | 86 | 1014.4 |
| 20260510102026 | 8 | 355 | 8.0 | 16.1 | 0.00 | 0.00 | 0.00 | 87 | 1014.1 |
| 20260510101545 | 7 | 350 | 8.0 | 16.1 | 0.00 | 0.00 | 0.00 | 88 | 1014.1 |
| 20260510101028 | 7 | 343 | 6.4 | 12.9 | 0.00 | 0.00 | 0.00 | 89 | 1014.2 |
| 20260510100530 | 7 | 348 | 4.8 | 12.9 | 0.00 | 0.00 | 0.00 | 89 | 1014.2 |
| 20260510100042 | 7 | 351 | 3.2 | 8.0 | 0.00 | 0.00 | 0.00 | 90 | 1014.1 |
| 20260510095527 | 7 | 355 | 4.8 | 8.0 | 0.00 | 0.00 | 0.00 | 90 | 1013.9 |
| 20260510095028 | 7 | 355 | 3.2 | 8.0 | 0.00 | 0.00 | 0.00 | 90 | 1014.0 |
| 20260510094543 | 7 | 9 | 1.6 | 4.8 | 0.00 | 0.00 | 0.00 | 90 | 1013.9 |
| 20260510094027 | 7 | 0 | 0.0 | 3.2 | 0.00 | 0.00 | 0.00 | 90 | 1013.9 |
| 20260510093527 | 7 | 9 | 0.0 | 3.2 | 0.00 | 0.00 | 0.00 | 90 | 1014.0 |
| 20260510093041 | 6 | 0 | 0.0 | 3.2 | 0.00 | 0.00 | 0.00 | 90 | 1013.8 |
| 20260510092527 | 6 | 9 | 1.6 | 3.2 | 0.00 | 0.00 | 0.00 | 90 | 1013.8 |
| 20260510092027 | 6 | 9 | 0.0 | 3.2 | 0.00 | 0.00 | 0.00 | 89 | 1013.6 |
| 20260510091547 | 6 | 0 | 0.0 | 3.2 | 0.00 | 0.00 | 0.00 | 89 | 1013.6 |
| 20260510091026 | 6 | 9 | 0.0 | 3.2 | 0.00 | 0.00 | 0.00 | 89 | 1013.5 |
| 20260510090528 | 6 | 0 | 0.0 | 3.2 | 0.00 | 0.00 | 0.00 | 89 | 1013.4 |
| 20260510090046 | 6 | 9 | 1.6 | 3.2 | 0.00 | 0.00 | 0.00 | 89 | 1013.3 |
| 20260510085528 | 6 | 9 | 1.6 | 3.2 | 0.00 | 0.00 | 0.00 | 88 | 1013.3 |
| 20260510085028 | 6 | 9 | 1.6 | 3.2 | 0.00 | 0.00 | 0.00 | 88 | 1013.2 |
| 20260510084543 | 6 | 9 | 1.6 | 4.8 | 0.00 | 0.00 | 0.00 | 88 | 1013.1 |
| 20260510084028 | 7 | 9 | 1.6 | 4.8 | 0.00 | 0.00 | 0.00 | 88 | 1013.0 |
| 20260510083532 | 7 | 9 | 1.6 | 3.2 | 0.00 | 0.00 | 0.00 | 88 | 1012.9 |
| 20260510083041 | 7 | 0 | 0.0 | 3.2 | 0.00 | 0.00 | 0.00 | 88 | 1013.0 |
| 20260510082527 | 7 | 9 | 0.0 | 3.2 | 0.00 | 0.00 | 0.00 | 87 | 1012.8 |
| 20260510082027 | 7 | 9 | 1.6 | 3.2 | 0.00 | 0.00 | 0.00 | 87 | 1012.9 |
| 20260510081545 | 7 | 9 | 0.0 | 3.2 | 0.00 | 0.00 | 0.00 | 87 | 1012.9 |
| 20260510081029 | 7 | 0 | 0.0 | 4.8 | 0.00 | 0.00 | 0.00 | 87 | 1012.8 |
| 20260510080530 | 7 | 9 | 1.6 | 4.8 | 0.00 | 0.00 | 0.00 | 87 | 1012.9 |
| 20260510080041 | 7 | 9 | 1.6 | 4.8 | 0.00 | 0.00 | 0.00 | 86 | 1012.8 |
| 20260510075527 | 7 | 9 | 1.6 | 4.8 | 0.00 | 0.00 | 0.00 | 86 | 1012.7 |
| 20260510075027 | 8 | 9 | 1.6 | 3.2 | 0.00 | 0.00 | 0.00 | 84 | 1012.6 |
| 20260510074543 | 8 | 9 | 1.6 | 3.2 | 0.00 | 0.00 | 0.00 | 84 | 1012.5 |
| 20260510074027 | 8 | 9 | 0.0 | 1.6 | 0.00 | 0.00 | 0.00 | 83 | 1012.3 |
| 20260510073530 | 8 | 0 | 0.0 | 1.6 | 0.00 | 0.00 | 0.00 | 82 | 1012.2 |
| 20260510073044 | 8 | 0 | 0.0 | 4.8 | 0.00 | 0.00 | 0.00 | 81 | 1012.1 |
| 20260510072528 | 8 | 0 | 0.0 | 4.8 | 0.00 | 0.00 | 0.00 | 81 | 1011.9 |
| 20260510072027 | 8 | 9 | 1.6 | 8.0 | 0.00 | 0.00 | 0.00 | 81 | 1012.0 |
| 20260510071542 | 8 | 9 | 3.2 | 11.3 | 0.00 | 0.00 | 0.00 | 80 | 1011.9 |
| 20260510071027 | 9 | 9 | 4.8 | 11.3 | 0.00 | 0.00 | 0.00 | 80 | 1011.8 |
| 20260510070530 | 9 | 355 | 4.8 | 12.9 | 0.00 | 0.00 | 0.00 | 80 | 1011.8 |
| 20260510070043 | 9 | 9 | 4.8 | 12.9 | 0.00 | 0.00 | 0.00 | 80 | 1011.9 |
| 20260510065531 | 9 | 355 | 6.4 | 14.5 | 0.00 | 0.00 | 0.00 | 80 | 1011.8 |
| 20260510065030 | 10 | 349 | 8.0 | 17.7 | 0.00 | 0.00 | 0.00 | 79 | 1011.6 |
| 20260510064540 | 10 | 348 | 9.7 | 20.9 | 0.00 | 0.00 | 0.00 | 80 | 1011.6 |
| 20260510064028 | 10 | 350 | 11.3 | 22.5 | 0.00 | 0.00 | 0.00 | 80 | 1011.7 |
| 20260510063528 | 10 | 351 | 11.3 | 24.1 | 0.00 | 0.00 | 0.00 | 81 | 1011.5 |
| 20260510063046 | 10 | 355 | 14.5 | 24.1 | 0.00 | 0.00 | 0.00 | 81 | 1011.4 |
| 20260510062528 | 10 | 360 | 16.1 | 32.2 | 0.00 | 0.00 | 0.00 | 82 | 1011.3 |
| 20260510062028 | 11 | 331 | 14.5 | 32.2 | 0.00 | 0.00 | 0.00 | 83 | 1011.2 |
| 20260510061545 | 11 | 360 | 19.3 | 32.2 | 0.00 | 0.00 | 0.00 | 85 | 1011.1 |
| 20260510061027 | 11 | 28 | 17.7 | 32.2 | 0.00 | 0.00 | 0.00 | 87 | 1010.9 |
| 20260510060528 | 12 | 332 | 11.3 | 24.1 | 0.00 | 0.00 | 0.00 | 89 | 1010.9 |
| 20260510060051 | 12 | 314 | 4.8 | 24.1 | 0.00 | 0.00 | 0.00 | 90 | 1010.8 |
| 20260510055529 | 12 | 317 | 12.9 | 24.1 | 0.00 | 0.00 | 0.00 | 90 | 1010.5 |
| 20260510055028 | 12 | 323 | 3.2 | 8.0 | 0.00 | 0.00 | 0.00 | 88 | 1010.6 |
| 20260510054545 | 12 | 285 | 1.6 | 4.8 | 0.00 | 0.00 | 0.00 | 88 | 1010.4 |
| 20260510054028 | 12 | 0 | 0.0 | 1.6 | 0.00 | 0.00 | 0.00 | 88 | 1010.3 |
| 20260510053527 | 12 | 0 | 0.0 | 3.2 | 0.00 | 0.00 | 0.00 | 88 | 1010.3 |
| 20260510053042 | 12 | 0 | 0.0 | 8.0 | 0.00 | 0.00 | 0.00 | 87 | 1010.2 |
| 20260510052527 | 12 | 0 | 0.0 | 9.7 | 0.00 | 0.00 | 0.00 | 87 | 1010.3 |
| 20260510052027 | 12 | 286 | 3.2 | 16.1 | 0.00 | 0.00 | 0.00 | 88 | 1010.0 |
| 20260510051559 | 12 | 278 | 8.0 | 20.9 | 0.00 | 0.00 | 0.00 | 88 | 1010.0 |
| 20260510051028 | 12 | 288 | 12.9 | 20.9 | 0.00 | 0.00 | 0.00 | 90 | 1009.8 |
| 20260510050527 | 12 | 250 | 8.0 | 19.3 | 0.00 | 0.00 | 0.00 | 90 | 1009.8 |
| 20260510050042 | 12 | 326 | 6.4 | 16.1 | 0.00 | 0.00 | 0.00 | 90 | 1009.9 |
| 20260510045531 | 12 | 284 | 1.6 | 9.7 | 0.00 | 0.00 | 0.00 | 89 | 1009.7 |
| 20260510045027 | 12 | 190 | 4.8 | 11.3 | 0.00 | 0.00 | 0.00 | 89 | 1009.4 |
| 20260510044538 | 12 | 177 | 4.8 | 12.9 | 0.00 | 0.00 | 0.00 | 90 | 1009.4 |
| 20260510044030 | 11 | 189 | 8.0 | 12.9 | 0.00 | 0.00 | 0.00 | 90 | 1009.2 |
| 20260510043528 | 11 | 169 | 8.0 | 11.3 | 0.00 | 0.00 | 0.00 | 90 | 1009.1 |
| 20260510043109 | 11 | 181 | 4.8 | 8.0 | 0.00 | 0.00 | 0.00 | 90 | 1009.1 |
| 20260510042528 | 11 | 184 | 4.8 | 8.0 | 0.00 | 0.00 | 0.00 | 88 | 1009.1 |
| 20260510042027 | 11 | 185 | 4.8 | 8.0 | 0.00 | 0.00 | 0.00 | 88 | 1009.0 |
| 20260510041549 | 11 | 186 | 4.8 | 8.0 | 0.00 | 0.00 | 0.00 | 89 | 1009.1 |
| 20260510041030 | 11 | 178 | 6.4 | 8.0 | 0.00 | 0.00 | 0.00 | 88 | 1009.0 |
| 20260510040530 | 11 | 185 | 4.8 | 8.0 | 0.00 | 0.00 | 0.00 | 88 | 1009.0 |
| 20260510040043 | 12 | 186 | 4.8 | 8.0 | 0.00 | 0.00 | 0.00 | 88 | 1008.9 |
| 20260510035528 | 12 | 186 | 4.8 | 8.0 | 0.00 | 0.00 | 0.00 | 87 | 1009.0 |
| 20260510035032 | 12 | 187 | 3.2 | 6.4 | 0.00 | 0.00 | 0.00 | 87 | 1008.9 |
| 20260510034545 | 12 | 187 | 1.6 | 4.8 | 0.00 | 0.00 | 0.00 | 87 | 1008.9 |
| 20260510034030 | 12 | 187 | 1.6 | 6.4 | 0.00 | 0.00 | 0.00 | 86 | 1008.8 |
| 20260510033527 | 12 | 187 | 3.2 | 9.7 | 0.00 | 0.00 | 0.00 | 86 | 1008.9 |
| 20260510033042 | 13 | 186 | 4.8 | 9.7 | 0.00 | 0.00 | 0.00 | 86 | 1008.9 |
| 20260510032528 | 13 | 198 | 4.8 | 11.3 | 0.00 | 0.00 | 0.00 | 85 | 1008.9 |
| 20260510032027 | 13 | 200 | 6.4 | 11.3 | 0.00 | 0.00 | 0.00 | 86 | 1008.9 |
| 20260510031619 | 13 | 200 | 4.8 | 9.7 | 0.00 | 0.00 | 0.00 | 86 | 1008.9 |
| 20260510031030 | 13 | 199 | 4.8 | 12.9 | 0.00 | 0.00 | 0.00 | 85 | 1008.9 |
| 20260510030531 | 13 | 189 | 6.4 | 12.9 | 0.00 | 0.00 | 0.00 | 84 | 1008.8 |
| 20260510030041 | 13 | 223 | 1.6 | 9.7 | 0.00 | 0.00 | 0.00 | 84 | 1008.7 |
| 20260510025528 | 14 | 314 | 1.6 | 11.3 | 0.00 | 0.00 | 0.00 | 84 | 1009.1 |
| 20260510025030 | 14 | 313 | 4.8 | 11.3 | 0.00 | 0.00 | 0.00 | 83 | 1008.9 |
| 20260510024545 | 14 | 240 | 3.2 | 17.7 | 0.00 | 0.00 | 0.00 | 82 | 1008.9 |
| 20260510024027 | 14 | 0 | 1.6 | 17.7 | 0.00 | 0.00 | 0.00 | 82 | 1008.8 |
| 20260510023527 | 14 | 210 | 8.0 | 19.3 | 0.00 | 0.00 | 0.00 | 83 | 1008.8 |
| 20260510023048 | 14 | 211 | 11.3 | 19.3 | 0.00 | 0.00 | 0.00 | 84 | 1009.0 |
| 20260510022529 | 13 | 212 | 4.8 | 11.3 | 0.00 | 0.00 | 0.00 | 85 | 1009.2 |
| 20260510022031 | 13 | 207 | 3.2 | 11.3 | 0.00 | 0.00 | 0.00 | 85 | 1009.1 |
| 20260510021546 | 13 | 215 | 4.8 | 11.3 | 0.00 | 0.00 | 0.00 | 85 | 1009.3 |
| 20260510021030 | 13 | 239 | 1.6 | 14.5 | 0.00 | 0.00 | 0.00 | 85 | 1008.8 |
| 20260510020527 | 13 | 248 | 4.8 | 24.1 | 0.00 | 0.00 | 0.00 | 86 | 1008.9 |
| 20260510020043 | 13 | 282 | 12.9 | 24.1 | 0.00 | 0.00 | 0.00 | 87 | 1009.0 |
| 20260510015530 | 13 | 254 | 4.8 | 12.9 | 0.00 | 0.00 | 0.00 | 88 | 1009.3 |
| 20260510015029 | 13 | 248 | 3.2 | 9.7 | 0.00 | 0.00 | 0.00 | 89 | 1009.2 |
| 20260510014541 | 12 | 195 | 6.4 | 9.7 | 0.00 | 0.00 | 0.00 | 89 | 1008.5 |
| 20260510014028 | 12 | 180 | 6.4 | 9.7 | 0.00 | 0.00 | 0.00 | 89 | 1008.1 |
| 20260510013532 | 12 | 182 | 4.8 | 9.7 | 0.00 | 0.00 | 0.00 | 88 | 1008.1 |
| 20260510013042 | 12 | 183 | 4.8 | 9.7 | 0.00 | 0.00 | 0.00 | 88 | 1008.0 |
| 20260510012528 | 12 | 192 | 4.8 | 6.4 | 0.00 | 0.00 | 0.00 | 87 | 1008.0 |
| 20260510012030 | 13 | 193 | 4.8 | 6.4 | 0.00 | 0.00 | 0.00 | 87 | 1007.9 |
| 20260510011554 | 13 | 208 | 4.8 | 6.4 | 0.00 | 0.00 | 0.00 | 88 | 1007.9 |
| 20260510011030 | 13 | 209 | 3.2 | 6.4 | 0.00 | 0.00 | 0.00 | 87 | 1007.9 |
| 20260510010528 | 13 | 221 | 3.2 | 6.4 | 0.00 | 0.00 | 0.00 | 87 | 1007.8 |
| 20260510005527 | 13 | 223 | 1.6 | 6.4 | 0.00 | 0.00 | 0.00 | 87 | 1007.7 |
| 20260510005027 | 13 | 223 | 1.6 | 8.0 | 0.00 | 0.00 | 0.00 | 86 | 1007.6 |
| 20260510004545 | 13 | 222 | 0.0 | 12.9 | 0.00 | 0.00 | 0.00 | 86 | 1007.5 |
| 20260510004032 | 13 | 222 | 1.6 | 12.9 | 0.00 | 0.00 | 0.00 | 86 | 1007.5 |
| 20260510003529 | 13 | 232 | 1.6 | 12.9 | 0.00 | 0.00 | 0.00 | 87 | 1007.5 |
| 20260510003042 | 13 | 237 | 3.2 | 12.9 | 0.00 | 0.00 | 0.00 | 87 | 1007.6 |
| 20260510002528 | 13 | 221 | 3.2 | 12.9 | 0.00 | 0.00 | 0.00 | 87 | 1007.7 |
| 20260510002031 | 13 | 241 | 1.6 | 14.5 | 0.00 | 0.00 | 0.00 | 87 | 1007.8 |
| 20260510001541 | 13 | 188 | 4.8 | 14.5 | 0.00 | 0.00 | 0.00 | 87 | 1007.8 |
| 20260510001028 | 13 | 192 | 3.2 | 12.9 | 0.00 | 0.00 | 0.00 | 88 | 1007.6 |
| 20260510000527 | 13 | 240 | 1.6 | 12.9 | 0.00 | 0.00 | 0.00 | 88 | 1007.7 |
| 20260510000050 | 13 | 209 | 4.8 | 12.9 | 0.00 | 0.00 | 0.00 | 88 | 1007.6 |
| 20260509235530 | 13 | 234 | 3.2 | 14.5 | 0.00 | 0.00 | 0.00 | 88 | 1007.7 |
| 20260509235030 | 13 | 229 | 4.8 | 14.5 | 0.00 | 0.00 | 0.00 | 89 | 1007.7 |
| 20260509234546 | 13 | 226 | 4.8 | 19.3 | 0.00 | 0.00 | 0.00 | 89 | 1007.6 |
| 20260509234029 | 13 | 204 | 6.4 | 19.3 | 0.00 | 0.00 | 0.00 | 89 | 1007.7 |
| 20260509233527 | 12 | 253 | 6.4 | 19.3 | 0.00 | 0.00 | 0.00 | 89 | 1007.9 |
| 20260509233047 | 12 | 240 | 6.4 | 24.1 | 0.00 | 0.00 | 0.00 | 89 | 1007.9 |
| 20260509232527 | 12 | 253 | 8.0 | 24.1 | 0.00 | 0.00 | 0.00 | 89 | 1007.7 |
| 20260509232027 | 12 | 261 | 9.7 | 24.1 | 0.00 | 0.00 | 0.00 | 89 | 1007.9 |
| 20260509231549 | 12 | 275 | 12.9 | 32.2 | 0.00 | 0.00 | 0.00 | 89 | 1007.9 |
| 20260509231029 | 13 | 267 | 17.7 | 32.2 | 0.00 | 0.00 | 0.00 | 88 | 1007.9 |
| 20260509230530 | 13 | 300 | 17.7 | 45.1 | 0.00 | 0.00 | 0.00 | 87 | 1007.6 |
| 20260509230041 | 13 | 323 | 24.1 | 56.3 | 0.00 | 0.00 | 0.00 | 85 | 1007.6 |
| 20260509225528 | 15 | 321 | 16.1 | 56.3 | 0.00 | 0.00 | 0.00 | 80 | 1006.5 |
| 20260509225029 | 16 | 286 | 25.7 | 56.3 | 0.00 | 0.00 | 0.00 | 74 | 1007.2 |
| 20260509224542 | 17 | 295 | 11.3 | 30.6 | 0.00 | 0.00 | 0.00 | 73 | 1006.4 |
| 20260509224028 | 17 | 254 | 11.3 | 30.6 | 0.00 | 0.00 | 0.00 | 69 | 1006.2 |
| 20260509223530 | 18 | 240 | 14.5 | 32.2 | 0.00 | 0.00 | 0.00 | 63 | 1006.2 |
| 20260509223047 | 20 | 225 | 19.3 | 43.5 | 0.00 | 0.00 | 0.00 | 63 | 1005.7 |
| 20260509222531 | 20 | 210 | 22.5 | 43.5 | 0.00 | 0.00 | 0.00 | 60 | 1005.5 |
| 20260509222029 | 20 | 241 | 22.5 | 37.0 | 0.00 | 0.00 | 0.00 | 60 | 1005.2 |
| 20260509221546 | 20 | 235 | 22.5 | 35.4 | 0.00 | 0.00 | 0.00 | 60 | 1005.2 |
| 20260509221030 | 20 | 198 | 16.1 | 40.2 | 0.00 | 0.00 | 0.00 | 60 | 1005.4 |
| 20260509220530 | 20 | 196 | 22.5 | 40.2 | 0.00 | 0.00 | 0.00 | 59 | 1005.4 |
| 20260509220048 | 20 | 211 | 19.3 | 41.8 | 0.00 | 0.00 | 0.00 | 58 | 1005.5 |
| 20260509215528 | 21 | 200 | 19.3 | 41.8 | 0.00 | 0.00 | 0.00 | 59 | 1005.4 |
| 20260509215025 | 21 | 218 | 24.1 | 41.8 | 0.00 | 0.00 | 0.00 | 57 | 1005.5 |
| 20260509214542 | 21 | 201 | 25.7 | 41.8 | 0.00 | 0.00 | 0.00 | 55 | 1005.3 |
| 20260509214025 | 21 | 218 | 19.3 | 40.2 | 0.00 | 0.00 | 0.00 | 59 | 1005.5 |
| 20260509213525 | 21 | 174 | 20.9 | 45.1 | 0.00 | 0.00 | 0.00 | 59 | 1005.2 |
| 20260509213057 | 21 | 192 | 29.0 | 45.1 | 0.00 | 0.00 | 0.00 | 58 | 1005.4 |
| 20260509212527 | 21 | 198 | 24.1 | 43.5 | 0.00 | 0.00 | 0.00 | 60 | 1005.2 |
| 20260509212028 | 21 | 165 | 27.4 | 45.1 | 0.00 | 0.00 | 0.00 | 59 | 1005.3 |
| 20260509211607 | 21 | 202 | 24.1 | 45.1 | 0.00 | 0.00 | 0.00 | 59 | 1005.2 |
| 20260509211028 | 21 | 196 | 25.7 | 40.2 | 0.00 | 0.00 | 0.00 | 60 | 1005.2 |
| 20260509210529 | 21 | 204 | 24.1 | 37.0 | 0.00 | 0.00 | 0.00 | 61 | 1005.4 |
| 20260509210041 | 21 | 211 | 22.5 | 33.8 | 0.00 | 0.00 | 0.00 | 61 | 1005.5 |
| 20260509205528 | 21 | 205 | 19.3 | 41.8 | 0.00 | 0.00 | 0.00 | 61 | 1005.7 |
| 20260509205025 | 21 | 210 | 24.1 | 41.8 | 0.00 | 0.00 | 0.00 | 61 | 1005.6 |
| 20260509204557 | 21 | 206 | 24.1 | 40.2 | 0.00 | 0.00 | 0.00 | 62 | 1005.9 |
| 20260509204028 | 21 | 221 | 22.5 | 37.0 | 0.00 | 0.00 | 0.00 | 61 | 1005.8 |
| 20260509203524 | 21 | 201 | 22.5 | 37.0 | 0.00 | 0.00 | 0.00 | 63 | 1005.8 |
| 20260509203052 | 21 | 202 | 17.7 | 40.2 | 0.00 | 0.00 | 0.00 | 62 | 1006.0 |
| 20260509202525 | 21 | 192 | 20.9 | 40.2 | 0.00 | 0.00 | 0.00 | 63 | 1006.0 |
| 20260509202025 | 21 | 188 | 19.3 | 37.0 | 0.00 | 0.00 | 0.00 | 64 | 1006.0 |
| 20260509201542 | 20 | 197 | 17.7 | 37.0 | 0.00 | 0.00 | 0.00 | 62 | 1006.1 |
| 20260509201024 | 20 | 187 | 22.5 | 37.0 | 0.00 | 0.00 | 0.00 | 63 | 1006.2 |
| 20260509200526 | 20 | 182 | 20.9 | 37.0 | 0.00 | 0.00 | 0.00 | 65 | 1006.3 |
| 20260509200042 | 20 | 214 | 20.9 | 37.0 | 0.00 | 0.00 | 0.00 | 63 | 1006.4 |
| 20260509195526 | 21 | 205 | 20.9 | 37.0 | 0.00 | 0.00 | 0.00 | 61 | 1006.4 |
| 20260509195025 | 20 | 168 | 22.5 | 41.8 | 0.00 | 0.00 | 0.00 | 63 | 1006.6 |
| 20260509194543 | 20 | 218 | 22.5 | 41.8 | 0.00 | 0.00 | 0.00 | 64 | 1006.7 |
| 20260509194024 | 20 | 200 | 20.9 | 38.6 | 0.00 | 0.00 | 0.00 | 64 | 1006.7 |
| 20260509193530 | 20 | 195 | 22.5 | 38.6 | 0.00 | 0.00 | 0.00 | 65 | 1006.8 |
| 20260509193047 | 20 | 199 | 16.1 | 33.8 | 0.00 | 0.00 | 0.00 | 66 | 1006.8 |
| 20260509192527 | 20 | 186 | 19.3 | 33.8 | 0.00 | 0.00 | 0.00 | 64 | 1006.8 |
| 20260509192027 | 20 | 202 | 19.3 | 33.8 | 0.00 | 0.00 | 0.00 | 65 | 1006.8 |
| 20260509191547 | 20 | 227 | 17.7 | 33.8 | 0.00 | 0.00 | 0.00 | 65 | 1006.9 |
| 20260509191030 | 20 | 222 | 17.7 | 33.8 | 0.00 | 0.00 | 0.00 | 66 | 1007.1 |
| 20260509190527 | 20 | 200 | 17.7 | 33.8 | 0.00 | 0.00 | 0.00 | 67 | 1007.0 |
| 20260509190047 | 20 | 219 | 22.5 | 35.4 | 0.00 | 0.00 | 0.00 | 65 | 1007.2 |
| 20260509185527 | 19 | 213 | 20.9 | 35.4 | 0.00 | 0.00 | 0.00 | 68 | 1007.4 |
| 20260509185027 | 19 | 200 | 17.7 | 33.8 | 0.00 | 0.00 | 0.00 | 69 | 1007.4 |
| 20260509184543 | 19 | 215 | 22.5 | 33.8 | 0.00 | 0.00 | 0.00 | 68 | 1007.5 |
| 20260509184027 | 19 | 200 | 20.9 | 37.0 | 0.00 | 0.00 | 0.00 | 69 | 1007.4 |
| 20260509183533 | 19 | 222 | 22.5 | 37.0 | 0.00 | 0.00 | 0.00 | 67 | 1007.5 |
| 20260509183042 | 19 | 204 | 19.3 | 33.8 | 0.00 | 0.00 | 0.00 | 71 | 1007.5 |
| 20260509182526 | 18 | 217 | 19.3 | 35.4 | 0.00 | 0.00 | 0.00 | 72 | 1007.6 |
| 20260509182026 | 18 | 211 | 25.7 | 37.0 | 0.00 | 0.00 | 0.00 | 68 | 1007.7 |
| 20260509181545 | 18 | 198 | 17.7 | 37.0 | 0.00 | 0.00 | 0.00 | 70 | 1007.5 |
| 20260509181029 | 18 | 192 | 20.9 | 38.6 | 0.00 | 0.00 | 0.00 | 69 | 1007.6 |
| 20260509180528 | 18 | 210 | 22.5 | 38.6 | 0.00 | 0.00 | 0.00 | 71 | 1007.4 |
| 20260509180042 | 18 | 213 | 20.9 | 35.4 | 0.00 | 0.00 | 0.00 | 70 | 1007.3 |
| 20260509175527 | 18 | 213 | 14.5 | 30.6 | 0.00 | 0.00 | 0.00 | 70 | 1007.4 |
| 20260509175027 | 18 | 186 | 20.9 | 30.6 | 0.00 | 0.00 | 0.00 | 69 | 1007.4 |
| 20260509174542 | 18 | 183 | 14.5 | 27.4 | 0.00 | 0.00 | 0.00 | 72 | 1007.3 |
| 20260509174030 | 18 | 209 | 14.5 | 32.2 | 0.00 | 0.00 | 0.00 | 71 | 1007.5 |
| 20260509173527 | 18 | 229 | 14.5 | 41.8 | 0.00 | 0.00 | 0.00 | 73 | 1007.4 |
| 20260509173043 | 18 | 180 | 17.7 | 41.8 | 0.00 | 0.00 | 0.00 | 73 | 1007.5 |
| 20260509172530 | 18 | 201 | 17.7 | 37.0 | 0.00 | 0.00 | 0.00 | 73 | 1007.6 |
| 20260509172030 | 18 | 205 | 19.3 | 30.6 | 0.00 | 0.00 | 0.00 | 73 | 1007.7 |
| 20260509171541 | 17 | 213 | 17.7 | 30.6 | 0.00 | 0.00 | 0.00 | 72 | 1007.8 |
| 20260509171029 | 17 | 224 | 14.5 | 29.0 | 0.00 | 0.00 | 0.00 | 72 | 1007.8 |
| 20260509170526 | 17 | 236 | 14.5 | 29.0 | 0.00 | 0.00 | 0.00 | 74 | 1007.9 |
| 20260509170041 | 18 | 237 | 12.9 | 27.4 | 0.00 | 0.00 | 0.00 | 73 | 1007.8 |
| 20260509165530 | 18 | 248 | 8.0 | 22.5 | 0.00 | 0.00 | 0.00 | 76 | 1007.8 |
| 20260509165030 | 17 | 254 | 8.0 | 25.7 | 0.00 | 0.00 | 0.00 | 75 | 1007.7 |